sensor_id;sensor_type;location;lat;lon;timestamp;pressure;altitude;pressure_sealevel;temperature;humidity
68145;BME280;55400;51.824;-0.196;2022-08-21T00:02:22;100617.72;;;18.57;58.06
68145;BME280;55400;51.824;-0.196;2022-08-21T00:04:50;100617.84;;;18.56;58.22
68145;BME280;55400;51.824;-0.196;2022-08-21T00:07:22;100614.94;;;18.47;58.42
68145;BME280;55400;51.824;-0.196;2022-08-21T00:09:51;100620.53;;;18.44;58.24
68145;BME280;55400;51.824;-0.196;2022-08-21T00:12:18;100614.56;;;18.41;58.48
68145;BME280;55400;51.824;-0.196;2022-08-21T00:14:45;100615.81;;;18.37;58.72
68145;BME280;55400;51.824;-0.196;2022-08-21T00:17:12;100612.63;;;18.31;59.03
68145;BME280;55400;51.824;-0.196;2022-08-21T00:19:39;100613.75;;;18.29;59.22
68145;BME280;55400;51.824;-0.196;2022-08-21T00:22:05;100616.28;;;18.30;59.22
68145;BME280;55400;51.824;-0.196;2022-08-21T00:24:32;100619.69;;;18.32;59.04
68145;BME280;55400;51.824;-0.196;2022-08-21T00:26:59;100611.44;;;18.24;59.23
68145;BME280;55400;51.824;-0.196;2022-08-21T00:29:26;100610.84;;;18.21;59.59
68145;BME280;55400;51.824;-0.196;2022-08-21T00:31:53;100615.19;;;18.22;59.36
68145;BME280;55400;51.824;-0.196;2022-08-21T00:34:20;100604.50;;;18.22;59.40
68145;BME280;55400;51.824;-0.196;2022-08-21T00:36:46;100603.66;;;18.21;59.39
68145;BME280;55400;51.824;-0.196;2022-08-21T00:39:13;100601.00;;;18.21;59.39
68145;BME280;55400;51.824;-0.196;2022-08-21T00:41:41;100596.50;;;18.22;59.75
68145;BME280;55400;51.824;-0.196;2022-08-21T00:44:10;100586.19;;;18.17;59.79
68145;BME280;55400;51.824;-0.196;2022-08-21T00:46:38;100594.06;;;18.19;59.79
68145;BME280;55400;51.824;-0.196;2022-08-21T00:49:06;100591.28;;;18.20;59.91
68145;BME280;55400;51.824;-0.196;2022-08-21T00:51:42;100592.28;;;18.19;59.93
68145;BME280;55400;51.824;-0.196;2022-08-21T00:54:10;100594.06;;;18.19;59.73
68145;BME280;55400;51.824;-0.196;2022-08-21T00:56:44;100579.19;;;18.16;59.75
68145;BME280;55400;51.824;-0.196;2022-08-21T00:59:11;100582.69;;;18.16;59.76
68145;BME280;55400;51.824;-0.196;2022-08-21T01:01:39;100589.84;;;18.16;60.06
68145;BME280;55400;51.824;-0.196;2022-08-21T01:04:06;100595.06;;;18.17;60.29
68145;BME280;55400;51.824;-0.196;2022-08-21T01:06:33;100585.34;;;18.16;60.39
68145;BME280;55400;51.824;-0.196;2022-08-21T01:08:59;100583.41;;;18.19;59.88
68145;BME280;55400;51.824;-0.196;2022-08-21T01:11:26;100580.50;;;18.22;60.05
68145;BME280;55400;51.824;-0.196;2022-08-21T01:13:53;100580.50;;;18.22;60.28
68145;BME280;55400;51.824;-0.196;2022-08-21T01:16:21;100576.03;;;18.22;60.29
68145;BME280;55400;51.824;-0.196;2022-08-21T01:18:49;100577.81;;;18.22;60.01
68145;BME280;55400;51.824;-0.196;2022-08-21T01:21:17;100580.50;;;18.22;60.29
68145;BME280;55400;51.824;-0.196;2022-08-21T01:23:49;100584.41;;;18.17;60.13
68145;BME280;55400;51.824;-0.196;2022-08-21T01:26:22;100583.06;;;18.12;60.43
68145;BME280;55400;51.824;-0.196;2022-08-21T01:29:26;100583.28;;;18.09;60.60
68145;BME280;55400;51.824;-0.196;2022-08-21T01:31:55;100588.75;;;18.07;60.70
68145;BME280;55400;51.824;-0.196;2022-08-21T01:34:22;100586.69;;;17.99;60.64
68145;BME280;55400;51.824;-0.196;2022-08-21T01:36:49;100591.41;;;17.96;60.71
68145;BME280;55400;51.824;-0.196;2022-08-21T01:39:16;100587.88;;;17.95;60.87
68145;BME280;55400;51.824;-0.196;2022-08-21T01:41:43;100592.50;;;17.93;61.20
68145;BME280;55400;51.824;-0.196;2022-08-21T01:44:10;100603.28;;;17.92;60.93
68145;BME280;55400;51.824;-0.196;2022-08-21T01:46:36;100599.34;;;17.85;60.90
68145;BME280;55400;51.824;-0.196;2022-08-21T01:49:05;100601.91;;;17.86;60.82
68145;BME280;55400;51.824;-0.196;2022-08-21T01:51:32;100603.13;;;17.82;61.29
68145;BME280;55400;51.824;-0.196;2022-08-21T01:53:59;100599.34;;;17.85;61.04
68145;BME280;55400;51.824;-0.196;2022-08-21T01:56:26;100599.34;;;17.85;61.38
68145;BME280;55400;51.824;-0.196;2022-08-21T01:58:54;100599.72;;;17.80;61.12
68145;BME280;55400;51.824;-0.196;2022-08-21T02:01:21;100599.22;;;17.75;61.47
68145;BME280;55400;51.824;-0.196;2022-08-21T02:03:48;100595.94;;;17.71;61.35
68145;BME280;55400;51.824;-0.196;2022-08-21T02:06:15;100589.03;;;17.69;61.27
68145;BME280;55400;51.824;-0.196;2022-08-21T02:08:45;100590.38;;;17.63;61.51
68145;BME280;55400;51.824;-0.196;2022-08-21T02:11:12;100591.78;;;17.56;62.07
68145;BME280;55400;51.824;-0.196;2022-08-21T02:13:39;100584.13;;;17.51;61.77
68145;BME280;55400;51.824;-0.196;2022-08-21T02:16:06;100589.81;;;17.47;62.15
68145;BME280;55400;51.824;-0.196;2022-08-21T02:18:34;100590.06;;;17.43;62.38
68145;BME280;55400;51.824;-0.196;2022-08-21T02:21:02;100587.00;;;17.37;62.27
68145;BME280;55400;51.824;-0.196;2022-08-21T02:23:30;100584.59;;;17.34;62.46
68145;BME280;55400;51.824;-0.196;2022-08-21T02:26:02;100575.88;;;17.32;62.90
68145;BME280;55400;51.824;-0.196;2022-08-21T02:28:29;100573.53;;;17.27;62.74
68145;BME280;55400;51.824;-0.196;2022-08-21T02:30:56;100580.56;;;17.28;62.95
68145;BME280;55400;51.824;-0.196;2022-08-21T02:33:24;100583.22;;;17.28;62.68
68145;BME280;55400;51.824;-0.196;2022-08-21T02:35:52;100573.88;;;17.22;62.79
68145;BME280;55400;51.824;-0.196;2022-08-21T02:38:24;100577.00;;;17.16;63.23
68145;BME280;55400;51.824;-0.196;2022-08-21T02:40:52;100579.91;;;17.13;63.12
68145;BME280;55400;51.824;-0.196;2022-08-21T02:43:21;100581.31;;;17.06;63.60
68145;BME280;55400;51.824;-0.196;2022-08-21T02:45:49;100579.00;;;17.01;63.43
68145;BME280;55400;51.824;-0.196;2022-08-21T02:48:19;100577.66;;;16.96;63.98
68145;BME280;55400;51.824;-0.196;2022-08-21T02:51:03;100576.16;;;16.91;63.94
68145;BME280;55400;51.824;-0.196;2022-08-21T02:53:31;100577.13;;;16.90;64.02
68145;BME280;55400;51.824;-0.196;2022-08-21T02:56:01;100575.56;;;16.88;63.98
68145;BME280;55400;51.824;-0.196;2022-08-21T02:58:32;100572.22;;;16.84;64.26
68145;BME280;55400;51.824;-0.196;2022-08-21T03:00:59;100578.53;;;16.83;64.62
68145;BME280;55400;51.824;-0.196;2022-08-21T03:03:27;100574.38;;;16.79;64.43
68145;BME280;55400;51.824;-0.196;2022-08-21T03:05:54;100572.06;;;16.74;64.68
68145;BME280;55400;51.824;-0.196;2022-08-21T03:08:21;100571.31;;;16.72;64.75
68145;BME280;55400;51.824;-0.196;2022-08-21T03:10:53;100568.00;;;16.69;64.68
68145;BME280;55400;51.824;-0.196;2022-08-21T03:13:20;100573.34;;;16.69;64.73
68145;BME280;55400;51.824;-0.196;2022-08-21T03:15:48;100574.22;;;16.69;65.28
68145;BME280;55400;51.824;-0.196;2022-08-21T03:18:16;100578.88;;;16.66;65.28
68145;BME280;55400;51.824;-0.196;2022-08-21T03:20:44;100577.94;;;16.67;65.29
68145;BME280;55400;51.824;-0.196;2022-08-21T03:23:11;100574.94;;;16.71;65.12
68145;BME280;55400;51.824;-0.196;2022-08-21T03:25:45;100575.88;;;16.70;64.96
68145;BME280;55400;51.824;-0.196;2022-08-21T03:28:16;100576.00;;;16.69;64.98
68145;BME280;55400;51.824;-0.196;2022-08-21T03:30:44;100568.00;;;16.69;65.25
68145;BME280;55400;51.824;-0.196;2022-08-21T03:33:12;100562.69;;;16.69;64.81
68145;BME280;55400;51.824;-0.196;2022-08-21T03:35:46;100564.13;;;16.62;65.14
68145;BME280;55400;51.824;-0.196;2022-08-21T03:38:14;100565.78;;;16.63;65.56
68145;BME280;55400;51.824;-0.196;2022-08-21T03:40:43;100572.94;;;16.62;65.58
68145;BME280;55400;51.824;-0.196;2022-08-21T03:43:11;100568.47;;;16.63;65.57
68145;BME280;55400;51.824;-0.196;2022-08-21T03:45:38;100556.25;;;16.60;65.57
68145;BME280;55400;51.824;-0.196;2022-08-21T03:48:07;100572.09;;;16.62;65.51
68145;BME280;55400;51.824;-0.196;2022-08-21T03:50:37;100572.44;;;16.57;65.66
68145;BME280;55400;51.824;-0.196;2022-08-21T03:53:08;100578.59;;;16.58;65.43
68145;BME280;55400;51.824;-0.196;2022-08-21T03:55:44;100572.56;;;16.55;65.48
68145;BME280;55400;51.824;-0.196;2022-08-21T03:58:14;100573.16;;;16.59;65.40
68145;BME280;55400;51.824;-0.196;2022-08-21T04:00:42;100582.88;;;16.60;65.59
68145;BME280;55400;51.824;-0.196;2022-08-21T04:03:09;100576.44;;;16.63;65.66
68145;BME280;55400;51.824;-0.196;2022-08-21T04:05:36;100578.81;;;16.54;65.58
68145;BME280;55400;51.824;-0.196;2022-08-21T04:08:05;100582.56;;;16.52;65.72
68145;BME280;55400;51.824;-0.196;2022-08-21T04:10:32;100577.16;;;16.41;66.69
68145;BME280;55400;51.824;-0.196;2022-08-21T04:13:01;100566.06;;;16.47;65.56
68145;BME280;55400;51.824;-0.196;2022-08-21T04:15:28;100575.03;;;16.46;66.01
68145;BME280;55400;51.824;-0.196;2022-08-21T04:17:55;100573.44;;;16.43;66.00
68145;BME280;55400;51.824;-0.196;2022-08-21T04:20:22;100574.38;;;16.42;66.01
68145;BME280;55400;51.824;-0.196;2022-08-21T04:22:50;100571.94;;;16.39;66.31
68145;BME280;55400;51.824;-0.196;2022-08-21T04:25:20;100562.50;;;16.35;66.12
68145;BME280;55400;51.824;-0.196;2022-08-21T04:27:48;100567.06;;;16.33;66.25
68145;BME280;55400;51.824;-0.196;2022-08-21T04:30:15;100566.09;;;16.34;66.35
68145;BME280;55400;51.824;-0.196;2022-08-21T04:32:48;100563.78;;;16.29;66.52
68145;BME280;55400;51.824;-0.196;2022-08-21T04:35:19;100569.81;;;16.31;66.42
68145;BME280;55400;51.824;-0.196;2022-08-21T04:37:46;100563.78;;;16.29;66.66
68145;BME280;55400;51.824;-0.196;2022-08-21T04:40:15;100571.03;;;16.27;66.87
68145;BME280;55400;51.824;-0.196;2022-08-21T04:42:49;100568.59;;;16.24;66.50
68145;BME280;55400;51.824;-0.196;2022-08-21T04:45:22;100573.25;;;16.20;66.73
68145;BME280;55400;51.824;-0.196;2022-08-21T04:47:54;100578.56;;;16.20;67.01
68145;BME280;55400;51.824;-0.196;2022-08-21T04:50:43;100578.06;;;16.15;67.16
68145;BME280;55400;51.824;-0.196;2022-08-21T04:53:15;100585.19;;;16.15;66.99
68145;BME280;55400;51.824;-0.196;2022-08-21T04:55:44;100587.63;;;16.18;67.12
68145;BME280;55400;51.824;-0.196;2022-08-21T04:58:15;100582.44;;;16.16;67.02
68145;BME280;55400;51.824;-0.196;2022-08-21T05:00:44;100594.53;;;16.20;66.72
68145;BME280;55400;51.824;-0.196;2022-08-21T05:03:12;100587.53;;;16.19;66.94
68145;BME280;55400;51.824;-0.196;2022-08-21T05:05:39;100586.56;;;16.20;67.04
68145;BME280;55400;51.824;-0.196;2022-08-21T05:08:07;100592.53;;;16.24;67.11
68145;BME280;55400;51.824;-0.196;2022-08-21T05:10:35;100596.97;;;16.24;66.81
68145;BME280;55400;51.824;-0.196;2022-08-21T05:13:02;100597.09;;;16.22;67.12
68145;BME280;55400;51.824;-0.196;2022-08-21T05:15:29;100593.47;;;16.23;67.00
68145;BME280;55400;51.824;-0.196;2022-08-21T05:17:56;100600.84;;;16.19;67.04
68145;BME280;55400;51.824;-0.196;2022-08-21T05:20:27;100595.72;;;16.16;67.18
68145;BME280;55400;51.824;-0.196;2022-08-21T05:22:54;100598.28;;;16.18;67.23
68145;BME280;55400;51.824;-0.196;2022-08-21T05:25:21;100596.56;;;16.17;67.20
68145;BME280;55400;51.824;-0.196;2022-08-21T05:27:49;100597.56;;;16.16;67.17
68145;BME280;55400;51.824;-0.196;2022-08-21T05:30:18;100593.69;;;16.20;67.13
68145;BME280;55400;51.824;-0.196;2022-08-21T05:32:45;100605.31;;;16.19;67.07
68145;BME280;55400;51.824;-0.196;2022-08-21T05:35:13;100609.75;;;16.18;67.20
68145;BME280;55400;51.824;-0.196;2022-08-21T05:37:39;100613.72;;;16.13;67.38
68145;BME280;55400;51.824;-0.196;2022-08-21T05:40:07;100622.44;;;16.15;67.10
68145;BME280;55400;51.824;-0.196;2022-08-21T05:42:53;100631.25;;;16.15;67.23
68145;BME280;55400;51.824;-0.196;2022-08-21T05:45:22;100634.13;;;16.12;67.38
68145;BME280;55400;51.824;-0.196;2022-08-21T05:48:15;100636.16;;;16.09;67.55
68145;BME280;55400;51.824;-0.196;2022-08-21T05:50:44;100637.66;;;16.13;67.46
68145;BME280;55400;51.824;-0.196;2022-08-21T05:53:11;100645.53;;;16.14;67.23
68145;BME280;55400;51.824;-0.196;2022-08-21T05:55:39;100641.91;;;16.15;67.56
68145;BME280;55400;51.824;-0.196;2022-08-21T05:58:12;100647.22;;;16.15;67.46
68145;BME280;55400;51.824;-0.196;2022-08-21T06:00:39;100652.66;;;16.14;67.65
68145;BME280;55400;51.824;-0.196;2022-08-21T06:03:14;100643.31;;;16.08;67.69
68145;BME280;55400;51.824;-0.196;2022-08-21T06:05:43;100650.09;;;16.12;67.81
68145;BME280;55400;51.824;-0.196;2022-08-21T06:08:10;100639.13;;;16.17;67.42
68145;BME280;55400;51.824;-0.196;2022-08-21T06:10:37;100631.91;;;16.19;67.61
68145;BME280;55400;51.824;-0.196;2022-08-21T06:13:04;100633.50;;;16.22;67.44
68145;BME280;55400;51.824;-0.196;2022-08-21T06:15:31;100635.72;;;16.28;67.59
68145;BME280;55400;51.824;-0.196;2022-08-21T06:17:58;100629.56;;;16.27;67.59
68145;BME280;55400;51.824;-0.196;2022-08-21T06:20:25;100640.72;;;16.32;67.27
68145;BME280;55400;51.824;-0.196;2022-08-21T06:22:52;100640.63;;;16.34;67.70
68145;BME280;55400;51.824;-0.196;2022-08-21T06:25:19;100637.00;;;16.35;67.80
68145;BME280;55400;51.824;-0.196;2022-08-21T06:27:46;100637.75;;;16.37;67.72
68145;BME280;55400;51.824;-0.196;2022-08-21T06:30:13;100633.16;;;16.39;67.48
68145;BME280;55400;51.824;-0.196;2022-08-21T06:32:40;100645.28;;;16.43;67.79
68145;BME280;55400;51.824;-0.196;2022-08-21T06:35:07;100645.28;;;16.43;67.82
68145;BME280;55400;51.824;-0.196;2022-08-21T06:37:34;100641.78;;;16.43;67.71
68145;BME280;55400;51.824;-0.196;2022-08-21T06:40:05;100647.22;;;16.41;67.83
68145;BME280;55400;51.824;-0.196;2022-08-21T06:42:38;100640.19;;;16.40;68.07
68145;BME280;55400;51.824;-0.196;2022-08-21T06:45:09;100651.88;;;16.50;67.82
68145;BME280;55400;51.824;-0.196;2022-08-21T06:47:36;100639.19;;;16.54;67.59
68145;BME280;55400;51.824;-0.196;2022-08-21T06:50:04;100640.59;;;16.60;67.74
68145;BME280;55400;51.824;-0.196;2022-08-21T06:52:31;100641.09;;;16.65;67.49
68145;BME280;55400;51.824;-0.196;2022-08-21T06:54:58;100647.16;;;16.67;67.47
68145;BME280;55400;51.824;-0.196;2022-08-21T06:57:25;100645.13;;;16.70;67.52
68145;BME280;55400;51.824;-0.196;2022-08-21T06:59:52;100643.09;;;16.74;67.07
68145;BME280;55400;51.824;-0.196;2022-08-21T07:02:18;100639.34;;;16.77;67.46
68145;BME280;55400;51.824;-0.196;2022-08-21T07:04:45;100635.84;;;16.76;67.45
68145;BME280;55400;51.824;-0.196;2022-08-21T07:07:12;100633.19;;;16.76;67.21
68145;BME280;55400;51.824;-0.196;2022-08-21T07:09:39;100632.00;;;16.80;67.12
68145;BME280;55400;51.824;-0.196;2022-08-21T07:12:06;100626.56;;;16.82;67.03
68145;BME280;55400;51.824;-0.196;2022-08-21T07:14:33;100625.59;;;16.83;67.05
68145;BME280;55400;51.824;-0.196;2022-08-21T07:17:00;100627.00;;;16.88;67.32
68145;BME280;55400;51.824;-0.196;2022-08-21T07:19:27;100616.22;;;16.90;67.08
68145;BME280;55400;51.824;-0.196;2022-08-21T07:21:58;100619.84;;;16.89;66.91
68145;BME280;55400;51.824;-0.196;2022-08-21T07:24:26;100616.22;;;16.90;67.22
68145;BME280;55400;51.824;-0.196;2022-08-21T07:26:53;100619.50;;;16.94;67.29
68145;BME280;55400;51.824;-0.196;2022-08-21T07:29:20;100614.19;;;16.94;67.23
68145;BME280;55400;51.824;-0.196;2022-08-21T07:31:47;100614.84;;;16.97;67.20
68145;BME280;55400;51.824;-0.196;2022-08-21T07:34:14;100615.34;;;17.02;66.67
68145;BME280;55400;51.824;-0.196;2022-08-21T07:36:41;100622.22;;;17.05;66.68
68145;BME280;55400;51.824;-0.196;2022-08-21T07:39:08;100614.78;;;17.10;66.65
68145;BME280;55400;51.824;-0.196;2022-08-21T07:41:34;100611.13;;;17.11;66.53
68145;BME280;55400;51.824;-0.196;2022-08-21T07:44:02;100619.97;;;17.12;66.97
68145;BME280;55400;51.824;-0.196;2022-08-21T07:46:31;100613.56;;;17.14;66.80
68145;BME280;55400;51.824;-0.196;2022-08-21T07:48:58;100623.03;;;17.18;66.58
68145;BME280;55400;51.824;-0.196;2022-08-21T07:51:26;100622.19;;;17.18;66.67
68145;BME280;55400;51.824;-0.196;2022-08-21T07:53:56;100624.00;;;17.17;66.91
68145;BME280;55400;51.824;-0.196;2022-08-21T07:56:24;100623.16;;;17.17;66.91
68145;BME280;55400;51.824;-0.196;2022-08-21T07:58:51;100626.44;;;17.20;66.39
68145;BME280;55400;51.824;-0.196;2022-08-21T08:01:18;100611.31;;;17.21;66.76
68145;BME280;55400;51.824;-0.196;2022-08-21T08:03:46;100618.97;;;17.25;66.44
68145;BME280;55400;51.824;-0.196;2022-08-21T08:06:12;100628.53;;;17.28;66.42
68145;BME280;55400;51.824;-0.196;2022-08-21T08:08:40;100605.41;;;17.29;66.53
68145;BME280;55400;51.824;-0.196;2022-08-21T08:11:08;100627.09;;;17.35;66.05
68145;BME280;55400;51.824;-0.196;2022-08-21T08:13:44;100617.06;;;17.39;66.56
68145;BME280;55400;51.824;-0.196;2022-08-21T08:16:11;100619.38;;;17.43;66.10
68145;BME280;55400;51.824;-0.196;2022-08-21T08:18:38;100619.75;;;17.50;66.27
68145;BME280;55400;51.824;-0.196;2022-08-21T08:21:05;100618.44;;;17.56;66.03
68145;BME280;55400;51.824;-0.196;2022-08-21T08:23:32;100612.03;;;17.58;65.73
68145;BME280;55400;51.824;-0.196;2022-08-21T08:25:59;100621.38;;;17.64;65.95
68145;BME280;55400;51.824;-0.196;2022-08-21T08:28:26;100611.22;;;17.69;65.80
68145;BME280;55400;51.824;-0.196;2022-08-21T08:30:53;100608.69;;;17.68;65.90
68145;BME280;55400;51.824;-0.196;2022-08-21T08:33:21;100613.03;;;17.69;65.86
68145;BME280;55400;51.824;-0.196;2022-08-21T08:35:50;100617.41;;;17.70;65.96
68145;BME280;55400;51.824;-0.196;2022-08-21T08:38:20;100611.09;;;17.71;65.72
68145;BME280;55400;51.824;-0.196;2022-08-21T08:41:03;100610.75;;;17.75;65.42
68145;BME280;55400;51.824;-0.196;2022-08-21T08:43:33;100599.34;;;17.85;65.51
68145;BME280;55400;51.824;-0.196;2022-08-21T08:46:06;100598.06;;;17.90;65.32
68145;BME280;55400;51.824;-0.196;2022-08-21T08:48:55;100606.31;;;17.98;65.23
68145;BME280;55400;51.824;-0.196;2022-08-21T08:51:48;100605.84;;;18.05;64.80
68145;BME280;55400;51.824;-0.196;2022-08-21T08:54:28;100603.69;;;18.10;64.46
68145;BME280;55400;51.824;-0.196;2022-08-21T08:57:00;100611.19;;;18.16;64.27
68145;BME280;55400;51.824;-0.196;2022-08-21T08:59:55;100619.81;;;18.20;64.25
68145;BME280;55400;51.824;-0.196;2022-08-21T09:02:22;100618.44;;;18.25;63.80
68145;BME280;55400;51.824;-0.196;2022-08-21T09:04:55;100618.31;;;18.27;64.30
68145;BME280;55400;51.824;-0.196;2022-08-21T09:21:46;100602.44;;;18.25;63.47
68145;BME280;55400;51.824;-0.196;2022-08-21T09:24:18;100604.50;;;18.33;63.30
68145;BME280;55400;51.824;-0.196;2022-08-21T09:27:14;100607.03;;;18.34;63.20
68145;BME280;55400;51.824;-0.196;2022-08-21T09:29:45;100607.91;;;18.35;62.89
68145;BME280;55400;51.824;-0.196;2022-08-21T09:35:03;100623.44;;;18.41;62.59
68145;BME280;55400;51.824;-0.196;2022-08-21T09:37:32;100625.00;;;18.44;62.78
68145;BME280;55400;51.824;-0.196;2022-08-21T09:40:02;100628.31;;;18.47;62.50
68145;BME280;55400;51.824;-0.196;2022-08-21T09:42:31;100629.84;;;18.50;62.44
68145;BME280;55400;51.824;-0.196;2022-08-21T09:45:15;100634.81;;;18.55;62.30
68145;BME280;55400;51.824;-0.196;2022-08-21T09:47:42;100630.72;;;18.62;62.62
68145;BME280;55400;51.824;-0.196;2022-08-21T09:50:32;100633.72;;;18.68;62.03
68145;BME280;55400;51.824;-0.196;2022-08-21T09:53:00;100635.06;;;18.74;62.18
68145;BME280;55400;51.824;-0.196;2022-08-21T09:55:31;100631.91;;;18.80;61.59
68145;BME280;55400;51.824;-0.196;2022-08-21T09:58:18;100635.66;;;18.89;61.28
68145;BME280;55400;51.824;-0.196;2022-08-21T10:01:00;100637.00;;;18.95;60.96
68145;BME280;55400;51.824;-0.196;2022-08-21T10:03:28;100627.63;;;19.00;60.59
68145;BME280;55400;51.824;-0.196;2022-08-21T10:08:23;100627.72;;;19.10;60.23
68145;BME280;55400;51.824;-0.196;2022-08-21T10:10:54;100626.34;;;19.16;60.30
68145;BME280;55400;51.824;-0.196;2022-08-21T10:16:21;100635.06;;;19.29;59.51
68145;BME280;55400;51.824;-0.196;2022-08-21T10:19:21;100637.47;;;19.32;59.11
68145;BME280;55400;51.824;-0.196;2022-08-21T10:22:12;100627.22;;;19.37;58.75
68145;BME280;55400;51.824;-0.196;2022-08-21T10:24:54;100639.38;;;19.41;58.10
68145;BME280;55400;51.824;-0.196;2022-08-21T10:29:53;100631.09;;;19.45;58.07
68145;BME280;55400;51.824;-0.196;2022-08-21T10:32:29;100626.47;;;19.47;57.89
68145;BME280;55400;51.824;-0.196;2022-08-21T10:35:14;100622.09;;;19.46;57.57
68145;BME280;55400;51.824;-0.196;2022-08-21T10:37:59;100611.25;;;19.47;57.93
68145;BME280;55400;51.824;-0.196;2022-08-21T10:48:37;100613.16;;;19.56;57.42
68145;BME280;55400;51.824;-0.196;2022-08-21T10:51:33;100611.09;;;19.60;56.79
68145;BME280;55400;51.824;-0.196;2022-08-21T10:54:36;100608.28;;;19.62;57.05
68145;BME280;55400;51.824;-0.196;2022-08-21T10:57:12;100605.22;;;19.66;57.03
68145;BME280;55400;51.824;-0.196;2022-08-21T11:00:06;100604.09;;;19.69;56.82
68145;BME280;55400;51.824;-0.196;2022-08-21T11:03:00;100608.88;;;19.65;56.20
68145;BME280;55400;51.824;-0.196;2022-08-21T11:05:51;100608.41;;;19.60;56.50
68145;BME280;55400;51.824;-0.196;2022-08-21T11:08:39;100605.00;;;19.58;56.09
68145;BME280;55400;51.824;-0.196;2022-08-21T11:11:17;100609.13;;;19.62;56.44
68145;BME280;55400;51.824;-0.196;2022-08-21T11:14:01;100608.59;;;19.68;56.26
68145;BME280;55400;51.824;-0.196;2022-08-21T11:16:37;100615.03;;;19.77;56.55
68145;BME280;55400;51.824;-0.196;2022-08-21T11:19:19;100614.38;;;19.85;56.18
68145;BME280;55400;51.824;-0.196;2022-08-21T11:21:58;100616.38;;;19.92;55.96
68145;BME280;55400;51.824;-0.196;2022-08-21T11:24:34;100618.53;;;19.99;55.96
68145;BME280;55400;51.824;-0.196;2022-08-21T11:29:44;100613.09;;;20.10;55.83
68145;BME280;55400;51.824;-0.196;2022-08-21T11:43:10;100630.78;;;20.22;55.28
68145;BME280;55400;51.824;-0.196;2022-08-21T11:45:49;100637.09;;;20.21;55.07
68145;BME280;55400;51.824;-0.196;2022-08-21T11:50:52;100629.63;;;20.25;55.38
68145;BME280;55400;51.824;-0.196;2022-08-21T11:53:28;100630.22;;;20.28;54.98
68145;BME280;55400;51.824;-0.196;2022-08-21T11:56:26;100626.69;;;20.28;54.88
68145;BME280;55400;51.824;-0.196;2022-08-21T11:58:56;100635.03;;;20.35;54.97
68145;BME280;55400;51.824;-0.196;2022-08-21T12:01:48;100627.31;;;20.41;54.92
68145;BME280;55400;51.824;-0.196;2022-08-21T12:04:25;100628.31;;;20.50;55.07
68145;BME280;55400;51.824;-0.196;2022-08-21T12:06:55;100637.13;;;20.62;54.55
68145;BME280;55400;51.824;-0.196;2022-08-21T12:14:44;100638.63;;;20.85;53.92
68145;BME280;55400;51.824;-0.196;2022-08-21T12:17:20;100625.22;;;20.95;53.97
68145;BME280;55400;51.824;-0.196;2022-08-21T12:20:16;100635.69;;;21.08;52.79
68145;BME280;55400;51.824;-0.196;2022-08-21T12:22:52;100630.63;;;21.15;52.67
68145;BME280;55400;51.824;-0.196;2022-08-21T12:25:20;100633.03;;;21.18;52.77
68145;BME280;55400;51.824;-0.196;2022-08-21T12:28:03;100634.84;;;21.17;52.84
68145;BME280;55400;51.824;-0.196;2022-08-21T12:30:40;100627.53;;;21.19;52.51
68145;BME280;55400;51.824;-0.196;2022-08-21T12:35:48;100619.47;;;21.19;52.83
68145;BME280;55400;51.824;-0.196;2022-08-21T12:38:25;100622.03;;;21.21;52.50
68145;BME280;55400;51.824;-0.196;2022-08-21T12:41:05;100621.00;;;21.22;52.25
68145;BME280;55400;51.824;-0.196;2022-08-21T12:43:42;100624.16;;;21.27;52.60
68145;BME280;55400;51.824;-0.196;2022-08-21T12:46:19;100614.38;;;21.36;52.37
68145;BME280;55400;51.824;-0.196;2022-08-21T12:49:01;100612.03;;;21.52;51.79
68145;BME280;55400;51.824;-0.196;2022-08-21T12:51:54;100606.59;;;21.72;51.58
68145;BME280;55400;51.824;-0.196;2022-08-21T12:54:28;100595.88;;;21.82;51.49
68145;BME280;55400;51.824;-0.196;2022-08-21T12:56:59;100604.44;;;21.95;51.42
68145;BME280;55400;51.824;-0.196;2022-08-21T12:59:27;100603.81;;;22.11;50.82
68145;BME280;55400;51.824;-0.196;2022-08-21T13:01:55;100597.84;;;22.27;50.43
68145;BME280;55400;51.824;-0.196;2022-08-21T13:04:36;100604.03;;;22.37;50.33
68145;BME280;55400;51.824;-0.196;2022-08-21T13:07:10;100595.81;;;22.39;50.02
68145;BME280;55400;51.824;-0.196;2022-08-21T13:09:52;100595.13;;;22.37;49.45
68145;BME280;55400;51.824;-0.196;2022-08-21T13:12:21;100593.72;;;22.33;49.66
68145;BME280;55400;51.824;-0.196;2022-08-21T13:15:03;100606.47;;;22.31;49.89
68145;BME280;55400;51.824;-0.196;2022-08-21T13:17:42;100603.78;;;22.31;49.42
68145;BME280;55400;51.824;-0.196;2022-08-21T13:20:25;100601.94;;;22.31;48.68
68145;BME280;55400;51.824;-0.196;2022-08-21T13:22:57;100592.88;;;22.32;49.33
68145;BME280;55400;51.824;-0.196;2022-08-21T13:25:28;100585.25;;;22.27;48.99
68145;BME280;55400;51.824;-0.196;2022-08-21T13:28:10;100583.84;;;22.23;48.18
68145;BME280;55400;51.824;-0.196;2022-08-21T13:31:00;100578.84;;;22.28;48.55
68145;BME280;55400;51.824;-0.196;2022-08-21T13:33:30;100578.41;;;22.43;48.12
68145;BME280;55400;51.824;-0.196;2022-08-21T13:36:11;100577.97;;;22.48;46.57
68145;BME280;55400;51.824;-0.196;2022-08-21T13:38:41;100579.34;;;22.52;46.67
68145;BME280;55400;51.824;-0.196;2022-08-21T13:41:24;100574.75;;;22.62;46.33
68145;BME280;55400;51.824;-0.196;2022-08-21T13:44:02;100576.63;;;22.79;46.18
68145;BME280;55400;51.824;-0.196;2022-08-21T13:46:33;100581.09;;;22.89;46.33
68145;BME280;55400;51.824;-0.196;2022-08-21T13:49:03;100577.72;;;22.87;45.75
68145;BME280;55400;51.824;-0.196;2022-08-21T13:51:31;100569.81;;;22.85;45.64
68145;BME280;55400;51.824;-0.196;2022-08-21T13:54:00;100567.03;;;22.95;45.74
68145;BME280;55400;51.824;-0.196;2022-08-21T13:58:55;100572.50;;;23.21;45.45
68145;BME280;55400;51.824;-0.196;2022-08-21T14:01:28;100569.81;;;23.21;44.49
68145;BME280;55400;51.824;-0.196;2022-08-21T14:04:01;100576.81;;;23.14;44.47